createdAt,value
2023-05-21T00:33:10.638Z,5.10
2023-05-21T00:35:38.208Z,5.17
2023-05-21T00:38:07.672Z,5.27
2023-05-21T00:40:41.334Z,5.73
2023-05-21T00:43:10.830Z,5.30
2023-05-21T00:45:41.325Z,5.50
2023-05-21T00:48:08.972Z,5.67
2023-05-21T00:50:36.237Z,5.73
2023-05-21T00:53:03.341Z,6.18
2023-05-21T00:55:31.109Z,6.00
2023-05-21T00:57:58.193Z,5.87
2023-05-21T01:00:26.604Z,5.30
2023-05-21T01:02:53.809Z,5.67
2023-05-21T01:05:22.371Z,6.10
2023-05-21T01:07:49.533Z,6.40
2023-05-21T01:10:16.647Z,6.07
2023-05-21T01:12:45.785Z,6.33
2023-05-21T01:15:13.466Z,6.17
2023-05-21T01:17:41.601Z,6.20
2023-05-21T01:20:11.867Z,6.27
2023-05-21T01:22:51.746Z,6.90
2023-05-21T01:25:18.956Z,6.40
2023-05-21T01:27:46.150Z,6.20
2023-05-21T01:30:14.826Z,5.53
2023-05-21T01:33:02.821Z,5.80
2023-05-21T01:35:36.420Z,6.73
2023-05-21T01:38:31.541Z,6.20
2023-05-21T01:41:13.137Z,6.03
2023-05-21T01:43:44.664Z,6.23
2023-05-21T01:46:18.229Z,6.93
2023-05-21T01:48:45.621Z,6.07
2023-05-21T01:51:13.243Z,5.67
2023-05-21T01:53:41.450Z,6.97
2023-05-21T01:56:08.872Z,6.77
2023-05-21T01:58:36.181Z,6.50
2023-05-21T02:01:03.833Z,6.67
2023-05-21T02:03:31.303Z,7.03
2023-05-21T02:05:58.773Z,6.63
2023-05-21T02:08:27.442Z,6.70
2023-05-21T02:10:54.565Z,6.60
2023-05-21T02:13:25.842Z,6.57
2023-05-21T02:15:54.925Z,6.73
2023-05-21T02:18:22.646Z,6.90
2023-05-21T02:20:49.773Z,6.80
2023-05-21T02:23:16.821Z,7.13
2023-05-21T02:25:44.074Z,7.90
2023-05-21T02:28:11.118Z,7.00
2023-05-21T02:30:38.127Z,6.90
2023-05-21T02:33:05.280Z,7.60
2023-05-21T02:35:32.679Z,7.53
2023-05-21T02:38:03.212Z,7.17
2023-05-21T02:40:30.238Z,7.50
2023-05-21T02:42:57.325Z,7.73
2023-05-21T02:45:24.612Z,7.60
2023-05-21T02:47:51.656Z,7.27
2023-05-21T02:50:18.990Z,8.00
2023-05-21T02:52:46.093Z,7.77
2023-05-21T02:55:13.241Z,6.87
2023-05-21T02:57:40.278Z,7.60
2023-05-21T03:00:09.001Z,7.70
2023-05-21T03:02:36.815Z,7.90
2023-05-21T03:05:05.286Z,8.10
2023-05-21T03:07:32.531Z,8.38
2023-05-21T03:09:59.640Z,8.15
2023-05-21T03:12:26.718Z,8.15
2023-05-21T03:14:53.885Z,8.25
2023-05-21T03:17:22.379Z,8.27
2023-05-21T03:19:49.583Z,8.00
2023-05-21T03:22:16.660Z,8.27
2023-05-21T03:24:45.248Z,7.70
2023-05-21T03:27:12.398Z,7.85
2023-05-21T03:29:40.125Z,8.00
2023-05-21T03:32:07.763Z,8.07
2023-05-21T03:34:35.637Z,8.05
2023-05-21T03:37:02.795Z,8.35
2023-05-21T03:39:29.915Z,8.00
2023-05-21T03:41:57.073Z,7.70
2023-05-21T03:44:24.141Z,7.23
2023-05-21T03:46:51.209Z,7.03
2023-05-21T03:49:18.227Z,7.53
2023-05-21T04:01:33.430Z,7.23
2023-05-21T04:04:00.813Z,7.97
2023-05-21T04:06:28.201Z,8.17
2023-05-21T04:08:55.282Z,7.80
2023-05-21T04:11:22.553Z,7.80
2023-05-21T04:13:50.047Z,7.90
2023-05-21T04:16:19.491Z,7.43
2023-05-21T04:18:47.359Z,8.13
2023-05-21T04:21:14.599Z,8.03
2023-05-21T04:23:41.781Z,8.07
2023-05-21T04:26:08.982Z,7.97
2023-05-21T04:28:36.452Z,8.60
2023-05-21T04:31:03.623Z,8.13
2023-05-21T04:33:30.647Z,8.03
2023-05-21T04:35:58.055Z,8.17
2023-05-21T04:38:26.110Z,8.43
2023-05-21T04:40:53.671Z,8.37
2023-05-21T04:43:28.284Z,8.27
2023-05-21T04:45:55.770Z,7.77
2023-05-21T04:48:24.901Z,7.90
2023-05-21T04:50:53.572Z,8.10
2023-05-21T04:53:20.869Z,7.93
2023-05-21T04:55:48.140Z,7.87
2023-05-21T04:58:18.107Z,7.57
2023-05-21T05:00:50.933Z,7.73
2023-05-21T05:03:18.661Z,7.90
2023-05-21T05:05:46.432Z,7.50
2023-05-21T05:08:15.825Z,6.90
2023-05-21T05:10:43.439Z,7.23
2023-05-21T05:13:10.715Z,7.30
2023-05-21T05:15:37.996Z,6.70
2023-05-21T05:18:06.694Z,7.33
2023-05-21T05:20:33.842Z,7.30
2023-05-21T05:23:00.959Z,7.67
2023-05-21T05:25:28.083Z,7.13
2023-05-21T05:27:55.175Z,7.13
2023-05-21T05:30:22.229Z,7.77
2023-05-21T05:32:49.282Z,6.83
2023-05-21T05:35:16.353Z,7.90
2023-05-21T05:37:43.434Z,7.87
2023-05-21T05:40:11.066Z,7.53
2023-05-21T05:42:38.158Z,7.00
2023-05-21T05:45:05.891Z,7.60
2023-05-21T05:47:33.035Z,8.00
2023-05-21T05:50:00.047Z,7.13
2023-05-21T05:52:27.121Z,7.63
2023-05-21T05:54:54.133Z,7.93
2023-05-21T05:57:21.245Z,7.40
2023-05-21T05:59:48.328Z,8.20
2023-05-21T06:02:15.466Z,7.00
2023-05-21T06:04:42.786Z,7.20
2023-05-21T06:07:10.052Z,7.80
2023-05-21T06:09:38.834Z,7.83
2023-05-21T06:12:08.656Z,6.80
2023-05-21T06:14:36.722Z,7.40
2023-05-21T06:17:03.836Z,7.23
2023-05-21T06:19:31.137Z,7.53
2023-05-21T06:21:58.400Z,7.53
2023-05-21T06:24:26.120Z,7.93
2023-05-21T06:26:53.208Z,7.40
2023-05-21T06:29:20.190Z,7.20
2023-05-21T06:31:47.682Z,8.23
2023-05-21T06:34:15.003Z,7.30
2023-05-21T06:36:42.256Z,7.70
2023-05-21T06:39:09.346Z,7.47
2023-05-21T06:41:36.409Z,7.70
2023-05-21T06:44:03.623Z,7.47
2023-05-21T06:46:30.951Z,7.73
2023-05-21T06:48:58.084Z,7.60
2023-05-21T06:51:25.105Z,7.27
2023-05-21T06:53:52.412Z,7.70
2023-05-21T06:56:19.739Z,7.57
2023-05-21T06:58:46.826Z,7.53
2023-05-21T07:01:13.980Z,8.10
2023-05-21T07:03:41.037Z,8.00
2023-05-21T07:06:08.261Z,8.37
2023-05-21T07:08:35.315Z,8.07
2023-05-21T07:11:02.498Z,8.43
2023-05-21T07:13:30.400Z,8.38
2023-05-21T07:15:57.434Z,8.00
2023-05-21T07:18:24.450Z,8.18
2023-05-21T07:20:51.551Z,6.80
2023-05-21T07:23:18.653Z,7.80
2023-05-21T07:25:45.755Z,6.93
2023-05-21T07:28:12.864Z,7.17
2023-05-21T07:30:39.871Z,6.87
2023-05-21T07:33:07.107Z,7.70
2023-05-21T07:35:34.422Z,7.47
2023-05-21T07:38:01.655Z,7.73
2023-05-21T07:40:28.728Z,7.57
2023-05-21T07:42:56.329Z,7.73
2023-05-21T07:45:23.349Z,7.80
2023-05-21T07:47:50.403Z,8.03
2023-05-21T07:50:17.775Z,8.07
2023-05-21T07:52:44.880Z,7.37
2023-05-21T07:55:12.012Z,8.20
2023-05-21T07:57:39.100Z,7.93
2023-05-21T08:00:09.678Z,8.20
2023-05-21T08:02:37.198Z,7.73
2023-05-21T08:05:04.675Z,8.48
2023-05-21T08:07:32.619Z,8.50
2023-05-21T08:10:01.593Z,9.07
2023-05-21T08:12:29.572Z,9.13
2023-05-21T08:14:59.263Z,8.68
2023-05-21T08:17:28.391Z,9.57
2023-05-21T08:19:55.496Z,9.63
2023-05-21T08:22:22.734Z,10.50
2023-05-21T08:24:49.743Z,9.50
2023-05-21T08:27:16.733Z,9.63
2023-05-21T08:29:44.005Z,9.52
2023-05-21T08:32:11.197Z,9.98
2023-05-21T08:34:38.388Z,9.85
2023-05-21T08:37:05.482Z,9.98
2023-05-21T08:39:32.465Z,9.52
2023-05-21T08:42:13.013Z,10.40
2023-05-21T08:44:47.123Z,10.40
2023-05-21T08:47:16.946Z,10.45
2023-05-21T08:49:45.567Z,10.50
2023-05-21T08:52:13.518Z,11.30
2023-05-21T08:54:40.637Z,9.97
2023-05-21T08:57:08.342Z,9.88
2023-05-21T08:59:37.150Z,10.18
2023-05-21T09:02:05.520Z,11.30
2023-05-21T09:04:34.248Z,10.80
2023-05-21T09:07:03.098Z,11.07
2023-05-21T09:09:59.844Z,11.32
2023-05-21T09:12:28.500Z,10.73
2023-05-21T09:14:58.479Z,10.70
2023-05-21T09:17:25.639Z,11.23
2023-05-21T09:20:12.550Z,11.82
2023-05-21T09:22:45.413Z,11.87
2023-05-21T09:25:17.828Z,12.05
2023-05-21T09:27:45.285Z,12.75
2023-05-21T09:30:17.912Z,11.95
2023-05-21T09:32:46.661Z,12.82
2023-05-21T09:35:15.316Z,12.27
2023-05-21T09:37:48.480Z,12.25
2023-05-21T09:40:24.838Z,12.73
2023-05-21T09:42:54.697Z,11.97
2023-05-21T09:45:25.074Z,13.15
2023-05-21T09:47:54.425Z,13.13
2023-05-21T09:50:28.069Z,12.43
2023-05-21T09:52:56.294Z,12.52
2023-05-21T09:55:25.208Z,12.90
2023-05-21T09:57:53.310Z,12.95
2023-05-21T10:00:21.427Z,12.80
2023-05-21T10:02:54.525Z,12.98
2023-05-21T10:05:26.114Z,12.82
2023-05-21T10:07:56.845Z,13.50
2023-05-21T10:10:24.553Z,13.48
2023-05-21T10:12:59.488Z,13.32
2023-05-21T10:15:33.013Z,13.32
2023-05-21T10:18:01.129Z,13.77
2023-05-21T10:20:28.518Z,14.00
2023-05-21T10:22:57.174Z,14.40
2023-05-21T10:25:25.798Z,13.75
2023-05-21T10:27:55.712Z,14.10
2023-05-21T10:30:24.756Z,13.43
2023-05-21T10:32:52.423Z,13.32
2023-05-21T10:35:19.725Z,12.83
2023-05-21T10:37:47.119Z,13.60
2023-05-21T10:40:14.420Z,13.68
2023-05-21T10:43:06.452Z,13.40
2023-05-21T10:52:01.086Z,13.82
2023-05-21T10:55:19.330Z,13.50
2023-05-21T10:58:14.223Z,14.38
2023-05-21T11:00:43.771Z,14.20
2023-05-21T11:03:13.349Z,14.00
2023-05-21T11:05:55.554Z,14.77
2023-05-21T11:08:29.079Z,13.63
2023-05-21T11:11:00.414Z,13.55
2023-05-21T11:13:31.317Z,14.50
2023-05-21T11:15:58.501Z,14.70
2023-05-21T11:18:40.533Z,14.20
2023-05-21T11:21:17.717Z,14.67
2023-05-21T11:24:03.545Z,14.20
2023-05-21T11:26:50.512Z,14.52
2023-05-21T11:29:18.560Z,14.20
2023-05-21T11:31:48.019Z,14.57
2023-05-21T11:34:29.675Z,14.48
2023-05-21T11:37:18.739Z,15.10
2023-05-21T11:39:46.671Z,14.93
2023-05-21T11:42:14.197Z,15.38
2023-05-21T11:44:47.209Z,14.80
2023-05-21T11:47:19.733Z,14.57
2023-05-21T11:49:47.377Z,15.48
2023-05-21T11:52:14.995Z,14.70
2023-05-21T11:54:50.729Z,14.95
2023-05-21T11:57:19.850Z,14.60
2023-05-21T11:59:48.789Z,15.20
2023-05-21T12:02:17.777Z,14.30
2023-05-21T12:04:48.606Z,15.17
2023-05-21T12:07:19.140Z,14.90
2023-05-21T12:09:49.080Z,14.98
2023-05-21T12:12:22.467Z,14.02
2023-05-21T12:14:51.447Z,14.68
2023-05-21T12:17:25.466Z,14.18
2023-05-21T12:19:59.349Z,14.23
2023-05-21T12:22:28.164Z,13.93
2023-05-21T12:24:56.406Z,14.45
2023-05-21T12:27:23.902Z,14.63
2023-05-21T12:29:52.164Z,14.90
2023-05-21T12:32:21.534Z,15.07
2023-05-21T12:39:51.317Z,15.50
2023-05-21T12:42:35.081Z,12.82
2023-05-21T12:45:09.480Z,13.70
2023-05-21T12:47:37.342Z,13.65
2023-05-21T12:50:09.521Z,12.40
2023-05-21T12:52:36.634Z,13.50
2023-05-21T12:55:05.520Z,14.07
2023-05-21T12:57:40.746Z,14.02
2023-05-21T13:00:09.065Z,12.60
2023-05-21T13:02:44.459Z,13.25
2023-05-21T13:05:17.790Z,14.55
2023-05-21T13:07:48.429Z,13.15
2023-05-21T13:10:18.983Z,13.60
2023-05-21T13:12:46.676Z,14.25
2023-05-21T13:15:14.561Z,13.48
2023-05-21T13:17:41.830Z,13.27
2023-05-21T13:20:16.220Z,12.57
2023-05-21T13:22:48.929Z,13.52
2023-05-21T13:25:21.634Z,12.85
2023-05-21T13:30:17.920Z,13.23
2023-05-21T13:32:45.324Z,13.13
2023-05-21T13:35:12.650Z,12.32
2023-05-21T13:37:41.466Z,12.35
2023-05-21T13:40:11.812Z,13.90
2023-05-21T13:42:39.479Z,13.10
2023-05-21T13:45:08.554Z,14.27
2023-05-21T13:47:38.495Z,13.45
2023-05-21T13:50:08.395Z,13.50
2023-05-21T13:52:36.098Z,13.68
2023-05-21T13:55:03.266Z,13.57
2023-05-21T13:57:31.225Z,13.63
2023-05-21T13:59:59.579Z,14.50
2023-05-21T14:02:26.871Z,14.07
2023-05-21T14:04:54.136Z,14.18
2023-05-21T14:07:22.311Z,13.35
2023-05-21T14:09:49.745Z,14.73
2023-05-21T14:12:17.181Z,14.55
2023-05-21T14:14:44.939Z,13.93
2023-05-21T14:17:12.038Z,13.50
2023-05-21T14:19:39.080Z,13.82
2023-05-21T14:22:06.125Z,13.15
2023-05-21T14:24:33.322Z,14.07
2023-05-21T14:27:00.394Z,14.35
2023-05-21T14:32:01.719Z,14.52
2023-05-21T14:34:28.997Z,14.35
2023-05-21T14:36:56.007Z,15.05
2023-05-21T14:39:23.135Z,14.80
2023-05-21T14:41:50.399Z,15.18
2023-05-21T14:44:17.799Z,15.45
2023-05-21T14:46:44.900Z,15.77
2023-05-21T14:49:12.459Z,15.67
2023-05-21T14:51:39.671Z,16.45
2023-05-21T14:54:06.879Z,15.95
2023-05-21T14:56:33.937Z,16.17
2023-05-21T14:59:01.031Z,15.63
2023-05-21T15:01:28.165Z,16.27
2023-05-21T15:03:57.009Z,16.13
2023-05-21T15:06:24.676Z,16.05
2023-05-21T15:08:51.874Z,16.45
2023-05-21T15:11:19.017Z,15.98
2023-05-21T15:13:46.528Z,15.18
2023-05-21T15:16:13.670Z,16.30
2023-05-21T15:18:40.820Z,16.77
2023-05-21T15:21:08.011Z,15.38
2023-05-21T15:23:35.229Z,15.55
2023-05-21T15:26:02.278Z,15.50
2023-05-21T15:28:29.322Z,15.65
2023-05-21T15:30:56.461Z,16.05
2023-05-21T15:33:23.541Z,15.07
2023-05-21T15:35:50.745Z,14.98
2023-05-21T15:38:17.823Z,15.85
2023-05-21T15:40:44.883Z,15.23
2023-05-21T15:43:12.019Z,15.93
2023-05-21T15:45:39.475Z,15.60
2023-05-21T15:48:07.349Z,15.52
2023-05-21T15:50:35.854Z,15.65
2023-05-21T15:53:04.852Z,14.73
2023-05-21T15:55:35.258Z,16.25
2023-05-21T15:58:04.169Z,16.08
2023-05-21T16:00:31.153Z,15.70
2023-05-21T16:02:58.484Z,15.10
2023-05-21T16:05:26.651Z,15.07
2023-05-21T16:07:53.678Z,15.35
2023-05-21T16:10:22.898Z,15.48
2023-05-21T16:12:49.945Z,13.50
2023-05-21T16:15:17.192Z,14.95
2023-05-21T17:56:02.763Z,15.90
2023-05-21T17:58:31.483Z,15.85
2023-05-21T18:00:58.790Z,15.98
2023-05-21T18:03:25.966Z,14.98
2023-05-21T18:05:53.307Z,15.60
2023-05-21T18:08:20.450Z,16.73
2023-05-21T18:10:48.148Z,15.82
2023-05-21T18:13:15.327Z,16.00
2023-05-21T18:15:42.366Z,15.57
2023-05-21T18:18:09.521Z,15.52
2023-05-21T18:20:36.858Z,15.10
2023-05-21T18:23:04.264Z,14.35
2023-05-21T18:25:31.392Z,14.05
2023-05-21T18:27:59.757Z,15.07
2023-05-21T18:30:26.827Z,14.73
2023-05-21T18:32:54.291Z,15.55
2023-05-21T18:35:21.380Z,14.90
2023-05-21T18:37:48.799Z,15.15
2023-05-21T18:40:17.509Z,14.38
2023-05-21T18:42:44.710Z,15.27
2023-05-21T18:45:13.103Z,15.23
2023-05-21T18:47:40.688Z,16.00
2023-05-21T18:50:19.128Z,16.60
2023-05-21T18:52:46.844Z,16.05
2023-05-21T18:55:14.815Z,14.80
2023-05-21T18:57:41.982Z,15.68
2023-05-21T19:00:09.891Z,16.27
2023-05-21T19:02:37.447Z,15.68
2023-05-21T19:05:05.773Z,16.58
2023-05-21T19:07:33.744Z,17.00
2023-05-21T19:10:01.139Z,16.75
2023-05-21T19:12:31.617Z,16.90
2023-05-21T19:14:58.728Z,16.65
2023-05-21T19:17:26.253Z,16.17
2023-05-21T19:19:56.658Z,16.92
2023-05-21T19:22:25.635Z,16.23
2023-05-21T19:24:53.348Z,18.00
2023-05-21T19:27:21.447Z,17.85
2023-05-21T19:29:49.047Z,17.25
2023-05-21T19:32:16.639Z,17.27
2023-05-21T19:34:43.767Z,17.58
2023-05-21T19:37:10.900Z,17.25
2023-05-21T19:39:40.038Z,18.02
2023-05-21T19:42:08.737Z,16.88
2023-05-21T19:44:39.448Z,17.38
2023-05-21T19:47:07.213Z,16.67
2023-05-21T19:49:34.536Z,17.00
2023-05-21T19:52:02.562Z,19.35
2023-05-21T19:54:29.617Z,19.98
2023-05-21T19:56:56.890Z,18.75
2023-05-21T19:59:24.020Z,19.13
2023-05-21T20:01:51.660Z,17.40
2023-05-21T20:04:18.911Z,18.02
2023-05-21T20:06:46.073Z,19.05
2023-05-21T20:09:13.831Z,24.98
2023-05-21T20:11:42.347Z,22.85
2023-05-21T20:14:09.461Z,22.35
2023-05-21T20:16:37.073Z,19.98
2023-05-21T20:19:04.284Z,23.95
2023-05-21T20:21:34.401Z,20.52
2023-05-21T20:24:03.386Z,18.63
2023-05-21T20:26:34.766Z,19.20
2023-05-21T20:29:02.107Z,19.75
2023-05-21T20:31:29.517Z,20.10
2023-05-21T20:33:56.700Z,18.42
2023-05-21T20:36:23.936Z,17.77
2023-05-21T20:38:51.225Z,17.55
2023-05-21T20:41:18.367Z,16.83
2023-05-21T20:43:46.160Z,17.30
2023-05-21T20:46:13.716Z,17.50
2023-05-21T20:48:41.850Z,17.00
2023-05-21T20:51:09.335Z,18.05
2023-05-21T20:53:37.081Z,17.20
2023-05-21T20:56:08.303Z,16.10
2023-05-21T20:58:35.598Z,16.38
2023-05-21T21:01:03.663Z,16.35
2023-05-21T21:03:34.048Z,15.63
2023-05-21T21:06:01.347Z,18.08
2023-05-21T21:08:28.469Z,18.17
2023-05-21T21:15:50.211Z,17.25
2023-05-21T21:18:17.654Z,20.33
2023-05-21T21:20:49.636Z,21.67
2023-05-21T21:23:17.085Z,21.40
2023-05-21T21:25:44.482Z,21.05
2023-05-21T21:28:11.731Z,20.85
2023-05-21T21:30:41.266Z,21.23
2023-05-21T21:33:08.902Z,20.73
2023-05-21T21:35:36.140Z,23.35
